Stamford, Nebraska
Current Conditions -  °F | °C
As of 8:15 PM on Friday 24 Oct 2014 (Local Time) from KHDE Reporting Station
Clear Clear  
Wind Chill: 60°   Ceiling: Unl
Heat Index: 60°   Visibility: 7mi
Dew Point: 35°   Wind: 0mph
Humidity: 39%   Direction: NA
Pressure: 30.01"   Gusts: NA
Location:  40.13°N, 99.59°W
Report Text: KHDE 250115Z AUTO 00000KT 7SM CLR 16/01 A3001 RMK AO2 T01550014
Loading
Personal Weather Stations






























Interactive Weather Map
Tropical Storm Tracking
New forecast layout! Learn more

10-Day Weather Forecast

Advertisements
Track Severe Weather on mobile